sensor_id;sensor_type;location;lat;lon;timestamp;P1;durP1;ratioP1;P2;durP2;ratioP2
17993;SDS011;9122;48.406;9.984;2023-03-26T00:00:58;1.27;;;1.17;;
17993;SDS011;9122;48.406;9.984;2023-03-26T00:03:43;0.97;;;0.97;;
17993;SDS011;9122;48.406;9.984;2023-03-26T00:06:30;2.00;;;1.47;;
17993;SDS011;9122;48.406;9.984;2023-03-26T00:09:19;1.20;;;1.03;;
17993;SDS011;9122;48.406;9.984;2023-03-26T00:12:04;0.90;;;0.90;;
17993;SDS011;9122;48.406;9.984;2023-03-26T00:14:49;1.00;;;1.00;;
17993;SDS011;9122;48.406;9.984;2023-03-26T00:17:35;1.73;;;1.10;;
17993;SDS011;9122;48.406;9.984;2023-03-26T00:20:21;0.87;;;0.87;;
17993;SDS011;9122;48.406;9.984;2023-03-26T00:23:06;0.97;;;0.93;;
17993;SDS011;9122;48.406;9.984;2023-03-26T00:25:52;1.10;;;1.00;;
17993;SDS011;9122;48.406;9.984;2023-03-26T00:28:37;2.77;;;1.23;;
17993;SDS011;9122;48.406;9.984;2023-03-26T00:31:23;3.00;;;0.87;;
17993;SDS011;9122;48.406;9.984;2023-03-26T00:34:08;0.97;;;0.73;;
17993;SDS011;9122;48.406;9.984;2023-03-26T00:36:53;1.93;;;1.07;;
17993;SDS011;9122;48.406;9.984;2023-03-26T00:39:38;2.10;;;1.10;;
17993;SDS011;9122;48.406;9.984;2023-03-26T00:42:22;1.30;;;1.10;;
17993;SDS011;9122;48.406;9.984;2023-03-26T00:45:07;1.20;;;1.00;;
17993;SDS011;9122;48.406;9.984;2023-03-26T00:47:52;1.00;;;1.00;;
17993;SDS011;9122;48.406;9.984;2023-03-26T00:50:37;1.17;;;1.03;;
17993;SDS011;9122;48.406;9.984;2023-03-26T00:53:22;1.53;;;0.97;;
17993;SDS011;9122;48.406;9.984;2023-03-26T00:56:07;1.40;;;1.20;;
17993;SDS011;9122;48.406;9.984;2023-03-26T00:58:52;1.83;;;0.90;;
17993;SDS011;9122;48.406;9.984;2023-03-26T01:01:36;1.40;;;1.30;;
17993;SDS011;9122;48.406;9.984;2023-03-26T01:04:24;1.00;;;1.00;;
17993;SDS011;9122;48.406;9.984;2023-03-26T01:07:14;1.37;;;1.10;;
17993;SDS011;9122;48.406;9.984;2023-03-26T01:10:04;1.90;;;0.90;;
17993;SDS011;9122;48.406;9.984;2023-03-26T01:12:49;2.33;;;0.80;;
17993;SDS011;9122;48.406;9.984;2023-03-26T01:15:33;1.40;;;1.10;;
17993;SDS011;9122;48.406;9.984;2023-03-26T01:18:22;1.57;;;1.13;;
17993;SDS011;9122;48.406;9.984;2023-03-26T01:21:17;1.40;;;1.30;;
17993;SDS011;9122;48.406;9.984;2023-03-26T01:24:08;1.23;;;1.00;;
17993;SDS011;9122;48.406;9.984;2023-03-26T01:30:26;0.60;;;0.60;;
17993;SDS011;9122;48.406;9.984;2023-03-26T01:33:27;1.93;;;0.77;;
17993;SDS011;9122;48.406;9.984;2023-03-26T01:36:31;1.33;;;1.00;;
17993;SDS011;9122;48.406;9.984;2023-03-26T01:39:45;0.93;;;0.93;;
17993;SDS011;9122;48.406;9.984;2023-03-26T01:42:41;2.10;;;1.30;;
17993;SDS011;9122;48.406;9.984;2023-03-26T01:45:31;2.60;;;1.57;;
17993;SDS011;9122;48.406;9.984;2023-03-26T01:48:19;2.17;;;1.10;;
17993;SDS011;9122;48.406;9.984;2023-03-26T01:51:04;2.33;;;1.10;;
17993;SDS011;9122;48.406;9.984;2023-03-26T01:53:50;1.40;;;1.30;;
17993;SDS011;9122;48.406;9.984;2023-03-26T02:03:03;3.97;;;1.67;;
17993;SDS011;9122;48.406;9.984;2023-03-26T02:06:13;2.23;;;1.20;;
17993;SDS011;9122;48.406;9.984;2023-03-26T02:09:04;1.40;;;1.07;;
17993;SDS011;9122;48.406;9.984;2023-03-26T02:11:51;1.53;;;1.23;;
17993;SDS011;9122;48.406;9.984;2023-03-26T02:14:36;3.83;;;1.30;;
17993;SDS011;9122;48.406;9.984;2023-03-26T02:17:21;1.70;;;1.10;;
17993;SDS011;9122;48.406;9.984;2023-03-26T02:20:07;2.47;;;1.43;;
17993;SDS011;9122;48.406;9.984;2023-03-26T02:22:57;1.73;;;1.10;;
17993;SDS011;9122;48.406;9.984;2023-03-26T02:25:44;2.07;;;0.93;;
17993;SDS011;9122;48.406;9.984;2023-03-26T02:28:28;1.60;;;1.27;;
17993;SDS011;9122;48.406;9.984;2023-03-26T02:31:13;2.43;;;0.97;;
17993;SDS011;9122;48.406;9.984;2023-03-26T02:33:59;1.00;;;1.00;;
17993;SDS011;9122;48.406;9.984;2023-03-26T02:36:44;1.73;;;1.30;;
17993;SDS011;9122;48.406;9.984;2023-03-26T02:39:28;1.10;;;1.10;;
17993;SDS011;9122;48.406;9.984;2023-03-26T02:42:18;2.03;;;1.10;;
17993;SDS011;9122;48.406;9.984;2023-03-26T02:45:03;3.03;;;1.30;;
17993;SDS011;9122;48.406;9.984;2023-03-26T02:47:49;1.97;;;1.00;;
17993;SDS011;9122;48.406;9.984;2023-03-26T02:50:37;2.33;;;1.17;;
17993;SDS011;9122;48.406;9.984;2023-03-26T02:53:22;1.70;;;1.50;;
17993;SDS011;9122;48.406;9.984;2023-03-26T02:56:12;2.27;;;1.27;;
17993;SDS011;9122;48.406;9.984;2023-03-26T02:58:57;2.07;;;1.53;;
17993;SDS011;9122;48.406;9.984;2023-03-26T03:01:41;1.60;;;1.50;;
17993;SDS011;9122;48.406;9.984;2023-03-26T03:04:26;3.77;;;1.90;;
17993;SDS011;9122;48.406;9.984;2023-03-26T03:07:10;1.30;;;1.20;;
17993;SDS011;9122;48.406;9.984;2023-03-26T03:09:57;1.40;;;1.30;;
17993;SDS011;9122;48.406;9.984;2023-03-26T03:12:45;2.33;;;1.40;;
17993;SDS011;9122;48.406;9.984;2023-03-26T03:15:30;3.00;;;1.60;;
17993;SDS011;9122;48.406;9.984;2023-03-26T03:18:15;2.10;;;1.90;;
17993;SDS011;9122;48.406;9.984;2023-03-26T03:20:59;2.73;;;1.33;;
17993;SDS011;9122;48.406;9.984;2023-03-26T03:23:44;1.50;;;1.40;;
17993;SDS011;9122;48.406;9.984;2023-03-26T03:26:28;1.70;;;1.47;;
17993;SDS011;9122;48.406;9.984;2023-03-26T03:29:13;3.40;;;1.77;;
17993;SDS011;9122;48.406;9.984;2023-03-26T03:31:57;1.70;;;1.43;;
17993;SDS011;9122;48.406;9.984;2023-03-26T03:34:42;2.30;;;1.40;;
17993;SDS011;9122;48.406;9.984;2023-03-26T03:37:27;3.07;;;1.90;;
17993;SDS011;9122;48.406;9.984;2023-03-26T03:40:12;1.90;;;1.50;;
17993;SDS011;9122;48.406;9.984;2023-03-26T03:42:56;3.27;;;1.70;;
17993;SDS011;9122;48.406;9.984;2023-03-26T03:45:41;4.47;;;1.67;;
17993;SDS011;9122;48.406;9.984;2023-03-26T03:48:26;1.40;;;1.30;;
17993;SDS011;9122;48.406;9.984;2023-03-26T03:51:10;1.57;;;1.47;;
17993;SDS011;9122;48.406;9.984;2023-03-26T03:53:55;3.53;;;1.43;;
17993;SDS011;9122;48.406;9.984;2023-03-26T03:56:40;3.03;;;1.53;;
17993;SDS011;9122;48.406;9.984;2023-03-26T03:59:25;3.83;;;1.90;;
17993;SDS011;9122;48.406;9.984;2023-03-26T04:02:09;5.30;;;2.03;;
17993;SDS011;9122;48.406;9.984;2023-03-26T04:04:54;3.43;;;2.07;;
17993;SDS011;9122;48.406;9.984;2023-03-26T04:07:42;1.57;;;1.40;;
17993;SDS011;9122;48.406;9.984;2023-03-26T04:10:27;5.73;;;1.77;;
17993;SDS011;9122;48.406;9.984;2023-03-26T04:13:12;2.00;;;1.73;;
17993;SDS011;9122;48.406;9.984;2023-03-26T04:15:57;2.57;;;1.63;;
17993;SDS011;9122;48.406;9.984;2023-03-26T04:18:51;1.73;;;1.33;;
17993;SDS011;9122;48.406;9.984;2023-03-26T04:21:55;2.80;;;1.80;;
17993;SDS011;9122;48.406;9.984;2023-03-26T04:28:41;5.00;;;1.80;;
17993;SDS011;9122;48.406;9.984;2023-03-26T04:31:28;2.20;;;2.00;;
17993;SDS011;9122;48.406;9.984;2023-03-26T04:34:17;2.53;;;1.90;;
17993;SDS011;9122;48.406;9.984;2023-03-26T04:37:07;2.83;;;1.77;;
17993;SDS011;9122;48.406;9.984;2023-03-26T04:40:08;2.00;;;1.87;;
17993;SDS011;9122;48.406;9.984;2023-03-26T04:43:14;3.73;;;2.00;;
17993;SDS011;9122;48.406;9.984;2023-03-26T04:46:13;2.47;;;1.70;;
17993;SDS011;9122;48.406;9.984;2023-03-26T04:49:01;3.33;;;1.60;;
17993;SDS011;9122;48.406;9.984;2023-03-26T04:52:33;1.80;;;1.70;;
17993;SDS011;9122;48.406;9.984;2023-03-26T04:58:46;1.50;;;1.40;;
17993;SDS011;9122;48.406;9.984;2023-03-26T05:01:32;1.87;;;1.77;;
17993;SDS011;9122;48.406;9.984;2023-03-26T05:04:20;4.93;;;1.93;;
17993;SDS011;9122;48.406;9.984;2023-03-26T05:07:04;1.77;;;1.67;;
17993;SDS011;9122;48.406;9.984;2023-03-26T05:09:50;4.30;;;2.13;;
17993;SDS011;9122;48.406;9.984;2023-03-26T05:12:35;3.77;;;1.77;;
17993;SDS011;9122;48.406;9.984;2023-03-26T05:15:19;2.40;;;1.70;;
17993;SDS011;9122;48.406;9.984;2023-03-26T05:18:04;3.63;;;1.97;;
17993;SDS011;9122;48.406;9.984;2023-03-26T05:20:48;3.03;;;1.80;;
17993;SDS011;9122;48.406;9.984;2023-03-26T05:23:35;2.03;;;1.60;;
17993;SDS011;9122;48.406;9.984;2023-03-26T05:26:20;1.77;;;1.67;;
17993;SDS011;9122;48.406;9.984;2023-03-26T05:29:05;2.90;;;1.70;;
17993;SDS011;9122;48.406;9.984;2023-03-26T05:31:49;3.00;;;1.93;;
17993;SDS011;9122;48.406;9.984;2023-03-26T05:34:34;2.47;;;1.50;;
17993;SDS011;9122;48.406;9.984;2023-03-26T05:37:18;3.23;;;2.10;;
17993;SDS011;9122;48.406;9.984;2023-03-26T05:40:07;1.83;;;1.53;;
17993;SDS011;9122;48.406;9.984;2023-03-26T05:42:54;1.80;;;1.70;;
17993;SDS011;9122;48.406;9.984;2023-03-26T05:45:39;1.87;;;1.73;;
17993;SDS011;9122;48.406;9.984;2023-03-26T05:48:24;1.77;;;1.57;;
17993;SDS011;9122;48.406;9.984;2023-03-26T05:51:09;2.73;;;1.40;;
17993;SDS011;9122;48.406;9.984;2023-03-26T05:53:55;3.97;;;1.50;;
17993;SDS011;9122;48.406;9.984;2023-03-26T05:56:39;3.77;;;2.03;;
17993;SDS011;9122;48.406;9.984;2023-03-26T05:59:24;2.40;;;1.60;;
17993;SDS011;9122;48.406;9.984;2023-03-26T06:02:11;2.77;;;1.93;;
17993;SDS011;9122;48.406;9.984;2023-03-26T06:04:55;4.60;;;2.57;;
17993;SDS011;9122;48.406;9.984;2023-03-26T06:07:43;5.10;;;1.90;;
17993;SDS011;9122;48.406;9.984;2023-03-26T06:10:28;3.93;;;1.90;;
17993;SDS011;9122;48.406;9.984;2023-03-26T06:13:13;2.80;;;1.80;;
17993;SDS011;9122;48.406;9.984;2023-03-26T06:15:58;2.97;;;1.47;;
17993;SDS011;9122;48.406;9.984;2023-03-26T06:18:43;3.30;;;1.90;;
17993;SDS011;9122;48.406;9.984;2023-03-26T06:21:29;3.77;;;1.87;;
17993;SDS011;9122;48.406;9.984;2023-03-26T06:24:14;2.90;;;1.93;;
17993;SDS011;9122;48.406;9.984;2023-03-26T06:26:59;4.67;;;2.00;;
17993;SDS011;9122;48.406;9.984;2023-03-26T06:29:43;2.23;;;1.83;;
17993;SDS011;9122;48.406;9.984;2023-03-26T06:32:27;3.63;;;2.30;;
17993;SDS011;9122;48.406;9.984;2023-03-26T06:35:12;2.33;;;2.13;;
17993;SDS011;9122;48.406;9.984;2023-03-26T06:37:58;4.97;;;1.80;;
17993;SDS011;9122;48.406;9.984;2023-03-26T06:40:43;3.03;;;1.53;;
17993;SDS011;9122;48.406;9.984;2023-03-26T06:43:27;4.20;;;1.70;;
17993;SDS011;9122;48.406;9.984;2023-03-26T06:46:16;2.30;;;2.10;;
17993;SDS011;9122;48.406;9.984;2023-03-26T06:49:01;1.90;;;1.80;;
17993;SDS011;9122;48.406;9.984;2023-03-26T06:51:46;1.57;;;1.47;;
17993;SDS011;9122;48.406;9.984;2023-03-26T06:54:30;3.93;;;1.80;;
17993;SDS011;9122;48.406;9.984;2023-03-26T06:57:15;4.23;;;1.80;;
17993;SDS011;9122;48.406;9.984;2023-03-26T06:59:59;1.77;;;1.67;;
17993;SDS011;9122;48.406;9.984;2023-03-26T07:02:44;2.10;;;1.90;;
17993;SDS011;9122;48.406;9.984;2023-03-26T07:05:29;2.00;;;1.90;;
17993;SDS011;9122;48.406;9.984;2023-03-26T07:08:17;1.93;;;1.83;;
17993;SDS011;9122;48.406;9.984;2023-03-26T07:11:03;4.67;;;2.10;;
17993;SDS011;9122;48.406;9.984;2023-03-26T07:13:48;3.33;;;2.80;;
17993;SDS011;9122;48.406;9.984;2023-03-26T07:16:35;3.93;;;2.03;;
17993;SDS011;9122;48.406;9.984;2023-03-26T07:19:19;3.53;;;2.37;;
17993;SDS011;9122;48.406;9.984;2023-03-26T07:22:04;1.93;;;1.80;;
17993;SDS011;9122;48.406;9.984;2023-03-26T07:24:49;2.07;;;1.80;;
17993;SDS011;9122;48.406;9.984;2023-03-26T07:36:50;2.57;;;1.70;;
17993;SDS011;9122;48.406;9.984;2023-03-26T07:46:11;2.03;;;1.83;;
17993;SDS011;9122;48.406;9.984;2023-03-26T07:48:57;1.97;;;1.87;;
17993;SDS011;9122;48.406;9.984;2023-03-26T07:51:43;4.10;;;2.40;;
17993;SDS011;9122;48.406;9.984;2023-03-26T07:54:27;2.73;;;1.83;;
17993;SDS011;9122;48.406;9.984;2023-03-26T07:57:18;3.10;;;1.93;;
17993;SDS011;9122;48.406;9.984;2023-03-26T08:06:31;5.00;;;2.47;;
17993;SDS011;9122;48.406;9.984;2023-03-26T08:15:28;3.77;;;2.23;;
17993;SDS011;9122;48.406;9.984;2023-03-26T08:18:33;3.77;;;2.30;;
17993;SDS011;9122;48.406;9.984;2023-03-26T08:21:28;2.77;;;1.80;;
17993;SDS011;9122;48.406;9.984;2023-03-26T08:24:35;3.30;;;2.57;;
17993;SDS011;9122;48.406;9.984;2023-03-26T08:27:38;3.63;;;2.30;;
17993;SDS011;9122;48.406;9.984;2023-03-26T08:30:43;2.60;;;2.30;;
17993;SDS011;9122;48.406;9.984;2023-03-26T08:33:29;2.77;;;2.47;;
17993;SDS011;9122;48.406;9.984;2023-03-26T08:36:17;5.90;;;2.43;;
17993;SDS011;9122;48.406;9.984;2023-03-26T08:39:02;4.53;;;2.33;;
17993;SDS011;9122;48.406;9.984;2023-03-26T08:41:59;3.47;;;2.20;;
17993;SDS011;9122;48.406;9.984;2023-03-26T08:48:25;4.47;;;2.40;;
17993;SDS011;9122;48.406;9.984;2023-03-26T08:54:38;4.03;;;2.57;;
17993;SDS011;9122;48.406;9.984;2023-03-26T09:26:46;3.90;;;2.90;;
17993;SDS011;9122;48.406;9.984;2023-03-26T09:55:37;4.30;;;2.73;;
17993;SDS011;9122;48.406;9.984;2023-03-26T10:01:41;2.57;;;2.37;;
17993;SDS011;9122;48.406;9.984;2023-03-26T10:21:39;3.13;;;2.60;;
17993;SDS011;9122;48.406;9.984;2023-03-26T10:34:08;2.50;;;2.30;;
17993;SDS011;9122;48.406;9.984;2023-03-26T10:37:08;2.33;;;2.13;;
17993;SDS011;9122;48.406;9.984;2023-03-26T11:00:59;2.40;;;1.87;;
17993;SDS011;9122;48.406;9.984;2023-03-26T11:17:09;1.57;;;1.30;;
17993;SDS011;9122;48.406;9.984;2023-03-26T11:20:01;1.10;;;0.50;;
17993;SDS011;9122;48.406;9.984;2023-03-26T11:28:51;0.50;;;0.30;;
17993;SDS011;9122;48.406;9.984;2023-03-26T11:41:54;0.33;;;0.33;;
17993;SDS011;9122;48.406;9.984;2023-03-26T11:45:31;0.40;;;0.40;;
17993;SDS011;9122;48.406;9.984;2023-03-26T11:48:47;0.57;;;0.40;;
17993;SDS011;9122;48.406;9.984;2023-03-26T11:51:40;0.40;;;0.40;;
17993;SDS011;9122;48.406;9.984;2023-03-26T11:54:31;0.70;;;0.40;;
17993;SDS011;9122;48.406;9.984;2023-03-26T11:57:21;0.80;;;0.57;;
17993;SDS011;9122;48.406;9.984;2023-03-26T12:00:14;0.40;;;0.40;;
17993;SDS011;9122;48.406;9.984;2023-03-26T12:03:05;0.47;;;0.47;;
17993;SDS011;9122;48.406;9.984;2023-03-26T12:05:58;0.67;;;0.67;;
17993;SDS011;9122;48.406;9.984;2023-03-26T12:08:45;0.50;;;0.50;;
17993;SDS011;9122;48.406;9.984;2023-03-26T12:11:31;0.50;;;0.40;;
17993;SDS011;9122;48.406;9.984;2023-03-26T12:14:18;0.50;;;0.50;;
17993;SDS011;9122;48.406;9.984;2023-03-26T12:17:07;0.40;;;0.40;;
17993;SDS011;9122;48.406;9.984;2023-03-26T12:19:55;0.40;;;0.40;;
17993;SDS011;9122;48.406;9.984;2023-03-26T12:22:45;0.63;;;0.50;;
17993;SDS011;9122;48.406;9.984;2023-03-26T12:25:37;0.33;;;0.33;;
17993;SDS011;9122;48.406;9.984;2023-03-26T12:28:22;0.50;;;0.50;;
17993;SDS011;9122;48.406;9.984;2023-03-26T12:31:14;0.33;;;0.33;;
17993;SDS011;9122;48.406;9.984;2023-03-26T12:34:22;0.70;;;0.70;;
17993;SDS011;9122;48.406;9.984;2023-03-26T12:37:33;1.13;;;0.90;;
17993;SDS011;9122;48.406;9.984;2023-03-26T12:40:39;0.40;;;0.40;;
17993;SDS011;9122;48.406;9.984;2023-03-26T12:43:53;0.50;;;0.50;;
17993;SDS011;9122;48.406;9.984;2023-03-26T12:46:37;0.60;;;0.40;;
17993;SDS011;9122;48.406;9.984;2023-03-26T12:49:22;0.20;;;0.20;;
17993;SDS011;9122;48.406;9.984;2023-03-26T12:52:08;0.53;;;0.53;;
17993;SDS011;9122;48.406;9.984;2023-03-26T12:58:52;0.43;;;0.43;;
17993;SDS011;9122;48.406;9.984;2023-03-26T13:21:18;0.60;;;0.60;;
17993;SDS011;9122;48.406;9.984;2023-03-26T13:36:18;0.40;;;0.40;;
17993;SDS011;9122;48.406;9.984;2023-03-26T13:48:11;0.60;;;0.60;;
17993;SDS011;9122;48.406;9.984;2023-03-26T13:54:04;1.63;;;1.13;;
17993;SDS011;9122;48.406;9.984;2023-03-26T13:57:23;0.90;;;0.90;;
17993;SDS011;9122;48.406;9.984;2023-03-26T14:00:21;1.00;;;1.00;;
17993;SDS011;9122;48.406;9.984;2023-03-26T14:03:14;0.97;;;0.90;;
17993;SDS011;9122;48.406;9.984;2023-03-26T14:06:07;0.77;;;0.70;;
17993;SDS011;9122;48.406;9.984;2023-03-26T14:09:11;0.83;;;0.83;;
17993;SDS011;9122;48.406;9.984;2023-03-26T14:15:13;1.30;;;1.10;;
17993;SDS011;9122;48.406;9.984;2023-03-26T14:18:19;1.80;;;0.73;;
17993;SDS011;9122;48.406;9.984;2023-03-26T14:54:32;0.60;;;0.60;;
17993;SDS011;9122;48.406;9.984;2023-03-26T15:00:44;0.57;;;0.40;;
17993;SDS011;9122;48.406;9.984;2023-03-26T15:28:59;0.30;;;0.30;;
17993;SDS011;9122;48.406;9.984;2023-03-26T15:38:16;0.93;;;0.37;;
17993;SDS011;9122;48.406;9.984;2023-03-26T15:44:10;0.20;;;0.20;;
17993;SDS011;9122;48.406;9.984;2023-03-26T15:59:27;0.83;;;0.40;;
17993;SDS011;9122;48.406;9.984;2023-03-26T16:02:41;0.90;;;0.60;;
17993;SDS011;9122;48.406;9.984;2023-03-26T16:11:49;0.67;;;0.50;;
17993;SDS011;9122;48.406;9.984;2023-03-26T16:17:26;0.60;;;0.50;;
17993;SDS011;9122;48.406;9.984;2023-03-26T16:20:46;0.60;;;0.50;;
17993;SDS011;9122;48.406;9.984;2023-03-26T16:26:25;0.90;;;0.60;;
17993;SDS011;9122;48.406;9.984;2023-03-26T16:29:33;0.70;;;0.67;;
17993;SDS011;9122;48.406;9.984;2023-03-26T16:32:43;1.10;;;0.90;;
17993;SDS011;9122;48.406;9.984;2023-03-26T16:38:46;2.13;;;0.70;;
17993;SDS011;9122;48.406;9.984;2023-03-26T16:45:11;0.53;;;0.50;;
17993;SDS011;9122;48.406;9.984;2023-03-26T17:12:38;0.43;;;0.40;;
17993;SDS011;9122;48.406;9.984;2023-03-26T17:37:41;0.20;;;0.20;;
17993;SDS011;9122;48.406;9.984;2023-03-26T17:43:42;0.43;;;0.30;;
17993;SDS011;9122;48.406;9.984;2023-03-26T17:46:34;0.43;;;0.40;;
17993;SDS011;9122;48.406;9.984;2023-03-26T17:49:25;0.40;;;0.40;;
17993;SDS011;9122;48.406;9.984;2023-03-26T17:52:21;0.20;;;0.20;;
17993;SDS011;9122;48.406;9.984;2023-03-26T17:55:19;1.10;;;0.23;;
17993;SDS011;9122;48.406;9.984;2023-03-26T18:03:55;0.70;;;0.70;;
17993;SDS011;9122;48.406;9.984;2023-03-26T18:13:06;0.53;;;0.53;;
17993;SDS011;9122;48.406;9.984;2023-03-26T18:16:11;0.80;;;0.50;;
17993;SDS011;9122;48.406;9.984;2023-03-26T18:19:01;0.50;;;0.50;;
17993;SDS011;9122;48.406;9.984;2023-03-26T18:22:03;0.23;;;0.23;;
17993;SDS011;9122;48.406;9.984;2023-03-26T18:24:49;0.40;;;0.40;;
17993;SDS011;9122;48.406;9.984;2023-03-26T18:27:37;0.70;;;0.50;;
17993;SDS011;9122;48.406;9.984;2023-03-26T18:30:23;0.57;;;0.57;;
17993;SDS011;9122;48.406;9.984;2023-03-26T18:33:13;0.60;;;0.60;;
17993;SDS011;9122;48.406;9.984;2023-03-26T18:35:58;0.60;;;0.60;;
17993;SDS011;9122;48.406;9.984;2023-03-26T18:38:43;0.70;;;0.70;;
17993;SDS011;9122;48.406;9.984;2023-03-26T18:41:38;0.90;;;0.90;;
17993;SDS011;9122;48.406;9.984;2023-03-26T18:44:25;0.67;;;0.67;;
17993;SDS011;9122;48.406;9.984;2023-03-26T18:47:10;1.10;;;1.00;;
17993;SDS011;9122;48.406;9.984;2023-03-26T18:49:55;1.33;;;1.20;;
17993;SDS011;9122;48.406;9.984;2023-03-26T18:52:40;1.90;;;1.73;;
17993;SDS011;9122;48.406;9.984;2023-03-26T18:55:28;1.37;;;1.17;;
17993;SDS011;9122;48.406;9.984;2023-03-26T19:01:13;1.13;;;1.07;;
17993;SDS011;9122;48.406;9.984;2023-03-26T19:04:01;1.47;;;1.10;;
17993;SDS011;9122;48.406;9.984;2023-03-26T19:06:48;0.80;;;0.80;;
17993;SDS011;9122;48.406;9.984;2023-03-26T19:09:37;0.57;;;0.57;;
17993;SDS011;9122;48.406;9.984;2023-03-26T19:12:27;1.97;;;0.70;;
17993;SDS011;9122;48.406;9.984;2023-03-26T19:15:15;1.60;;;0.80;;
17993;SDS011;9122;48.406;9.984;2023-03-26T19:18:02;0.57;;;0.57;;
17993;SDS011;9122;48.406;9.984;2023-03-26T19:20:53;1.17;;;0.40;;
17993;SDS011;9122;48.406;9.984;2023-03-26T19:23:40;0.33;;;0.33;;
17993;SDS011;9122;48.406;9.984;2023-03-26T19:26:25;0.53;;;0.50;;
17993;SDS011;9122;48.406;9.984;2023-03-26T19:29:11;0.53;;;0.53;;
17993;SDS011;9122;48.406;9.984;2023-03-26T19:32:05;0.70;;;0.60;;
17993;SDS011;9122;48.406;9.984;2023-03-26T19:35:19;0.53;;;0.53;;
17993;SDS011;9122;48.406;9.984;2023-03-26T19:38:12;0.60;;;0.60;;
17993;SDS011;9122;48.406;9.984;2023-03-26T19:41:21;0.60;;;0.60;;
17993;SDS011;9122;48.406;9.984;2023-03-26T19:50:23;1.23;;;0.87;;
17993;SDS011;9122;48.406;9.984;2023-03-26T19:59:14;0.60;;;0.60;;
17993;SDS011;9122;48.406;9.984;2023-03-26T20:01:58;0.67;;;0.57;;
17993;SDS011;9122;48.406;9.984;2023-03-26T20:04:43;0.60;;;0.60;;
17993;SDS011;9122;48.406;9.984;2023-03-26T20:07:28;1.60;;;0.93;;
17993;SDS011;9122;48.406;9.984;2023-03-26T20:10:12;0.90;;;0.90;;
17993;SDS011;9122;48.406;9.984;2023-03-26T20:12:56;0.70;;;0.70;;
17993;SDS011;9122;48.406;9.984;2023-03-26T20:15:41;0.63;;;0.63;;
17993;SDS011;9122;48.406;9.984;2023-03-26T20:18:30;1.70;;;0.83;;
17993;SDS011;9122;48.406;9.984;2023-03-26T20:21:15;0.60;;;0.60;;
17993;SDS011;9122;48.406;9.984;2023-03-26T20:24:00;0.87;;;0.87;;
17993;SDS011;9122;48.406;9.984;2023-03-26T20:26:45;1.10;;;0.60;;
17993;SDS011;9122;48.406;9.984;2023-03-26T20:29:30;0.63;;;0.63;;
17993;SDS011;9122;48.406;9.984;2023-03-26T20:32:18;0.80;;;0.80;;
17993;SDS011;9122;48.406;9.984;2023-03-26T20:38:04;0.70;;;0.70;;
17993;SDS011;9122;48.406;9.984;2023-03-26T20:40:52;0.40;;;0.40;;
17993;SDS011;9122;48.406;9.984;2023-03-26T20:43:37;0.40;;;0.40;;
17993;SDS011;9122;48.406;9.984;2023-03-26T20:46:23;1.43;;;0.80;;
17993;SDS011;9122;48.406;9.984;2023-03-26T20:49:09;0.50;;;0.50;;
17993;SDS011;9122;48.406;9.984;2023-03-26T20:51:54;0.60;;;0.60;;
17993;SDS011;9122;48.406;9.984;2023-03-26T20:54:38;0.63;;;0.63;;
17993;SDS011;9122;48.406;9.984;2023-03-26T20:57:23;1.47;;;1.00;;
17993;SDS011;9122;48.406;9.984;2023-03-26T21:00:09;1.40;;;1.00;;
17993;SDS011;9122;48.406;9.984;2023-03-26T21:03:00;0.97;;;0.60;;
17993;SDS011;9122;48.406;9.984;2023-03-26T21:05:44;0.77;;;0.57;;
17993;SDS011;9122;48.406;9.984;2023-03-26T21:08:31;0.70;;;0.70;;
17993;SDS011;9122;48.406;9.984;2023-03-26T21:11:22;0.50;;;0.50;;
17993;SDS011;9122;48.406;9.984;2023-03-26T21:14:13;1.90;;;0.50;;
17993;SDS011;9122;48.406;9.984;2023-03-26T21:17:03;0.60;;;0.60;;
17993;SDS011;9122;48.406;9.984;2023-03-26T21:19:48;0.60;;;0.60;;
17993;SDS011;9122;48.406;9.984;2023-03-26T21:25:56;0.50;;;0.50;;
17993;SDS011;9122;48.406;9.984;2023-03-26T21:28:55;0.70;;;0.70;;
17993;SDS011;9122;48.406;9.984;2023-03-26T21:31:39;0.60;;;0.60;;
17993;SDS011;9122;48.406;9.984;2023-03-26T21:34:24;0.50;;;0.50;;
17993;SDS011;9122;48.406;9.984;2023-03-26T21:37:09;0.70;;;0.70;;
17993;SDS011;9122;48.406;9.984;2023-03-26T21:39:54;0.63;;;0.63;;
17993;SDS011;9122;48.406;9.984;2023-03-26T21:42:40;1.00;;;0.50;;
17993;SDS011;9122;48.406;9.984;2023-03-26T21:45:25;0.50;;;0.50;;
17993;SDS011;9122;48.406;9.984;2023-03-26T21:48:10;1.30;;;1.10;;
17993;SDS011;9122;48.406;9.984;2023-03-26T21:50:55;1.63;;;0.90;;
17993;SDS011;9122;48.406;9.984;2023-03-26T21:53:45;0.80;;;0.77;;
17993;SDS011;9122;48.406;9.984;2023-03-26T22:08:47;0.93;;;0.93;;
17993;SDS011;9122;48.406;9.984;2023-03-26T22:11:32;0.77;;;0.77;;
17993;SDS011;9122;48.406;9.984;2023-03-26T22:14:16;1.20;;;1.10;;
17993;SDS011;9122;48.406;9.984;2023-03-26T22:17:01;1.53;;;1.20;;
17993;SDS011;9122;48.406;9.984;2023-03-26T22:19:46;1.10;;;1.10;;
17993;SDS011;9122;48.406;9.984;2023-03-26T22:22:32;0.80;;;0.80;;
17993;SDS011;9122;48.406;9.984;2023-03-26T22:25:17;1.73;;;1.17;;
17993;SDS011;9122;48.406;9.984;2023-03-26T22:28:02;2.00;;;1.17;;
17993;SDS011;9122;48.406;9.984;2023-03-26T22:30:47;1.20;;;0.87;;
17993;SDS011;9122;48.406;9.984;2023-03-26T22:33:31;0.80;;;0.80;;
17993;SDS011;9122;48.406;9.984;2023-03-26T22:36:18;1.00;;;0.90;;
17993;SDS011;9122;48.406;9.984;2023-03-26T22:39:03;0.93;;;0.93;;
17993;SDS011;9122;48.406;9.984;2023-03-26T22:41:48;0.83;;;0.83;;
17993;SDS011;9122;48.406;9.984;2023-03-26T22:44:32;0.90;;;0.90;;
17993;SDS011;9122;48.406;9.984;2023-03-26T22:47:16;0.70;;;0.70;;
17993;SDS011;9122;48.406;9.984;2023-03-26T22:50:00;1.20;;;1.10;;
17993;SDS011;9122;48.406;9.984;2023-03-26T22:52:45;0.90;;;0.90;;
17993;SDS011;9122;48.406;9.984;2023-03-26T22:55:29;2.10;;;0.97;;
17993;SDS011;9122;48.406;9.984;2023-03-26T22:58:15;0.90;;;0.90;;
17993;SDS011;9122;48.406;9.984;2023-03-26T23:01:04;1.10;;;1.00;;
17993;SDS011;9122;48.406;9.984;2023-03-26T23:03:53;0.90;;;0.90;;
17993;SDS011;9122;48.406;9.984;2023-03-26T23:06:38;1.00;;;1.00;;
17993;SDS011;9122;48.406;9.984;2023-03-26T23:09:30;1.10;;;1.00;;
17993;SDS011;9122;48.406;9.984;2023-03-26T23:12:15;2.07;;;1.30;;
17993;SDS011;9122;48.406;9.984;2023-03-26T23:15:00;1.53;;;1.37;;
17993;SDS011;9122;48.406;9.984;2023-03-26T23:17:47;1.10;;;1.10;;
17993;SDS011;9122;48.406;9.984;2023-03-26T23:20:32;1.60;;;1.50;;
17993;SDS011;9122;48.406;9.984;2023-03-26T23:23:23;1.27;;;1.17;;
17993;SDS011;9122;48.406;9.984;2023-03-26T23:26:12;1.40;;;1.30;;
17993;SDS011;9122;48.406;9.984;2023-03-26T23:28:58;1.60;;;1.50;;
17993;SDS011;9122;48.406;9.984;2023-03-26T23:31:42;1.70;;;1.60;;
17993;SDS011;9122;48.406;9.984;2023-03-26T23:34:27;2.00;;;1.90;;
17993;SDS011;9122;48.406;9.984;2023-03-26T23:37:11;2.37;;;2.17;;
17993;SDS011;9122;48.406;9.984;2023-03-26T23:39:56;2.20;;;2.10;;
17993;SDS011;9122;48.406;9.984;2023-03-26T23:42:42;2.50;;;2.30;;
17993;SDS011;9122;48.406;9.984;2023-03-26T23:45:26;2.10;;;1.93;;
17993;SDS011;9122;48.406;9.984;2023-03-26T23:48:11;2.37;;;2.17;;
17993;SDS011;9122;48.406;9.984;2023-03-26T23:50:59;2.63;;;2.43;;
17993;SDS011;9122;48.406;9.984;2023-03-26T23:53:44;2.63;;;2.43;;
17993;SDS011;9122;48.406;9.984;2023-03-26T23:56:29;3.27;;;3.00;;
17993;SDS011;9122;48.406;9.984;2023-03-26T23:59:14;3.13;;;2.83;;
